METAR Data
IDs: Format: Raw Decoded Include TAF

Data at: 0218 UTC 12 May 2021

KSBN 120154Z 32006KT 10SM CLR 04/M01 A3038 RMK AO2 SLP294 T00391011 $
KSBN 120054Z 34008KT 10SM CLR 07/M01 A3035 RMK AO2 SLP284 T00671006 $
KSBN 112354Z 34010KT 10SM CLR 09/M01 A3034 RMK AO2 SLP281 T00891006 10111 20083 53006 $
KSBN 112254Z 35013KT 10SM CLR 09/M01 A3033 RMK AO2 SLP276 T00941011 $
KSBN 112154Z 33014G20KT 10SM CLR 10/M02 A3032 RMK AO2 SLP275 T01001022 $
KSBN 112054Z 33015G23KT 10SM CLR 11/M02 A3032 RMK AO2 PK WND 33026/2024 SLP274 T01061022 56010 $
KSBN 111954Z 32015KT 10SM CLR 10/M02 A3033 RMK AO2 SLP277 T01001017 $
KSBN 111854Z 34018G26KT 10SM SCT046 11/M01 A3034 RMK AO2 PK WND 36026/1852 SLP280 T01061011 $
KSBN 111754Z 32016G22KT 10SM BKN048 11/M01 A3036 RMK AO2 SLP285 T01111011 10111 20044 50006 $
KSBN 111654Z 33013G23KT 10SM SCT047 BKN055 10/M02 A3036 RMK AO2 PK WND 36026/1634 SLP285 T01001017 $
KSBN 111554Z 34014KT 10SM SCT049 SCT060 11/M02 A3035 RMK AO2 SLP281 T01111017 $
KSBN 111454Z 34010KT 10SM CLR 10/M01 A3034 RMK AO2 SLP278 T01001011 51009 $
KSBN 111354Z 03008KT 10SM CLR 08/M01 A3034 RMK AO2 SLP277 T00831011 $
KSBN 111254Z 01010KT 10SM CLR 07/00 A3033 RMK AO2 SLP274 T00670000 $
KSBN 111154Z 00000KT 10SM CLR 04/01 A3031 RMK AO2 SLP269 T00440006 10044 20000 53023 $
KSBN 111054Z 35003KT 10SM CLR 01/M02 A3028 RMK AO2 SLP260 T00061017 $
KSBN 110954Z 01004KT 10SM CLR 00/M03 A3026 RMK AO2 SLP253 T00001028 $
KSBN 110854Z AUTO 01005KT 10SM CLR 02/M01 A3024 RMK AO2 SLP246 T00171011 53006 $
KSBN 110754Z AUTO 35005KT 10SM SCT120 02/M01 A3023 RMK AO2 SLP243 T00171011 $
KSBN 110654Z AUTO 36007KT 10SM FEW120 02/M01 A3022 RMK AO2 SLP238 T00221011 $
KSBN 110554Z AUTO 36007KT 10SM CLR 02/M01 A3022 RMK AO2 SLP239 T00221011 10089 20022 53004 $
KSBN 110454Z AUTO 35003KT 10SM SCT120 03/M02 A3022 RMK AO2 SLP236 T00331017 401330011 $
KSBN 110354Z AUTO 36003KT 10SM OVC110 05/M02 A3021 RMK AO2 SLP236 T00501022 $
KSBN 110254Z 33004KT 10SM SCT110 04/M02 A3021 RMK AO2 SLP234 T00441022 53014 $
KSBN 110154Z 01005KT 10SM OVC100 06/M02 A3019 RMK AO2 SLP227 T00611022 $
KSBN 110054Z 35009KT 10SM BKN110 08/M04 A3018 RMK AO2 SLP225 T00781039 $
KSBN 102354Z 01009KT 10SM CLR 09/M01 A3017 RMK AO2 SLP220 T00891006 10133 20089 53007 $
KSBN 102254Z 34012KT 10SM CLR 11/01 A3015 RMK AO2 SLP216 T01060006 $
KSBN 102154Z 36012KT 10SM SCT047 12/02 A3015 RMK AO2 SLP213 T01170017 $
KSBN 102054Z 34012KT 10SM BKN047 12/02 A3015 RMK AO2 SLP214 T01170022 55000 $
KSBN 101954Z 30005KT 10SM BKN044 OVC095 12/01 A3015 RMK AO2 SLP214 T01170006 $
KSBN 101854Z 10SM BKN049 BKN065 12/00 A3013 RMK AO2 SLP209 T01220000 $
KSBN 101754Z VRB04KT 10SM OVC050 11/M01 A3015 RMK AO2 SLP214 T01111011 10117 20050 50005 $
KSBN 101654Z 02004KT 10SM BKN060 OVC075 11/M02 A3016 RMK AO2 SLP216 T01061017 $
KSBN 101554Z 35004KT 10SM BKN070 11/M01 A3015 RMK AO2 SLP213 T01061011 $
KSBN 101454Z 00000KT 10SM OVC080 10/M01 A3013 RMK AO2 SLP208 T01001011 51010 $